createdAt,value
2019-03-23T00:00:14.987Z,18.93
2019-03-23T00:02:46.347Z,19.27
2019-03-23T00:05:16.129Z,17.63
2019-03-23T00:07:45.794Z,19.07
2019-03-23T00:10:15.468Z,45.38
2019-03-23T00:12:45.161Z,44.37
2019-03-23T00:15:17.880Z,21.10
2019-03-23T00:17:47.474Z,18.63
2019-03-23T00:20:17.388Z,18.67
2019-03-23T00:22:48.105Z,20.30
2019-03-23T00:25:17.870Z,18.87
2019-03-23T00:27:47.475Z,19.30
2019-03-23T00:30:17.194Z,18.77
2019-03-23T00:32:46.790Z,18.70
2019-03-23T00:35:16.476Z,19.00
2019-03-23T00:37:47.282Z,18.40
2019-03-23T00:40:16.926Z,17.80
2019-03-23T00:42:46.554Z,20.95
2019-03-23T00:45:16.264Z,20.67
2019-03-23T00:47:46.115Z,18.83
2019-03-23T00:50:15.838Z,19.67
2019-03-23T00:52:45.774Z,20.90
2019-03-23T00:55:15.463Z,18.27
2019-03-23T00:57:45.066Z,19.43
2019-03-23T01:00:15.065Z,18.57
2019-03-23T01:02:44.818Z,19.27
2019-03-23T01:05:14.632Z,18.00
2019-03-23T01:07:44.434Z,17.33
2019-03-23T01:10:14.310Z,17.57
2019-03-23T01:12:43.987Z,17.60
2019-03-23T01:15:13.732Z,18.10
2019-03-23T01:17:43.403Z,18.90
2019-03-23T01:20:13.315Z,19.90
2019-03-23T01:22:43.016Z,19.10
2019-03-23T01:25:12.897Z,17.80
2019-03-23T01:27:42.517Z,17.80
2019-03-23T01:30:12.445Z,18.33
2019-03-23T01:32:42.102Z,16.90
2019-03-23T01:35:11.751Z,18.90
2019-03-23T01:37:41.481Z,17.80
2019-03-23T01:40:11.329Z,17.60
2019-03-23T01:42:42.017Z,19.57
2019-03-23T01:45:12.895Z,17.30
2019-03-23T01:47:42.571Z,18.97
2019-03-23T01:50:13.281Z,18.47
2019-03-23T01:52:43.163Z,19.10
2019-03-23T01:55:12.873Z,18.93
2019-03-23T01:57:42.481Z,19.27
2019-03-23T02:00:12.495Z,17.40
2019-03-23T02:02:42.339Z,18.33
2019-03-23T02:05:12.098Z,20.10
2019-03-23T02:07:41.912Z,20.07
2019-03-23T02:10:11.885Z,18.83
2019-03-23T02:12:41.602Z,17.87
2019-03-23T02:15:11.533Z,19.63
2019-03-23T02:17:41.205Z,20.12
2019-03-23T02:20:11.090Z,19.37
2019-03-23T02:22:40.766Z,17.07
2019-03-23T02:25:11.106Z,17.33
2019-03-23T02:27:41.332Z,17.00
2019-03-23T02:30:11.257Z,18.67
2019-03-23T02:32:41.000Z,18.60
2019-03-23T02:35:10.690Z,17.27
2019-03-23T02:37:40.536Z,18.03
2019-03-23T02:40:11.449Z,17.60
2019-03-23T02:42:41.120Z,18.27
2019-03-23T02:45:10.999Z,18.40
2019-03-23T02:47:40.816Z,19.43
2019-03-23T02:50:10.623Z,18.13
2019-03-23T02:52:40.288Z,21.40
2019-03-23T02:55:10.217Z,20.63
2019-03-23T02:57:39.896Z,20.33
2019-03-23T03:00:10.067Z,21.87
2019-03-23T03:02:39.769Z,20.10
2019-03-23T03:05:09.647Z,20.90
2019-03-23T03:07:42.319Z,18.90
2019-03-23T03:10:11.004Z,20.13
2019-03-23T03:12:40.630Z,21.12
2019-03-23T03:15:10.579Z,20.65
2019-03-23T03:17:40.242Z,20.33
2019-03-23T03:20:10.353Z,18.87
2019-03-23T03:22:40.088Z,16.80
2019-03-23T03:25:09.910Z,19.17
2019-03-23T03:27:39.516Z,17.93
2019-03-23T03:30:10.576Z,17.87
2019-03-23T03:32:40.387Z,16.40
2019-03-23T03:35:10.402Z,15.47
2019-03-23T03:37:40.242Z,16.57
2019-03-23T03:40:09.995Z,16.40
2019-03-23T03:42:39.735Z,16.47
2019-03-23T03:45:09.740Z,14.93
2019-03-23T03:47:41.306Z,15.27
2019-03-23T03:50:12.350Z,15.00
2019-03-23T03:52:42.926Z,16.03
2019-03-23T03:55:12.680Z,17.17
2019-03-23T03:57:42.351Z,16.10
2019-03-23T04:00:12.214Z,15.80
2019-03-23T04:02:41.989Z,15.20
2019-03-23T04:05:12.749Z,15.63
2019-03-23T04:07:42.431Z,15.63
2019-03-23T04:10:12.202Z,15.00
2019-03-23T04:12:42.012Z,14.90
2019-03-23T04:15:12.841Z,14.80
2019-03-23T04:17:42.525Z,15.20
2019-03-23T04:20:12.542Z,14.80
2019-03-23T04:22:42.327Z,12.93
2019-03-23T04:25:12.177Z,14.43
2019-03-23T04:27:41.768Z,14.20
2019-03-23T04:30:12.010Z,14.70
2019-03-23T04:32:41.759Z,14.33
2019-03-23T04:35:11.623Z,14.43
2019-03-23T04:37:41.319Z,15.30
2019-03-23T04:40:11.294Z,14.40
2019-03-23T04:42:41.002Z,14.70
2019-03-23T04:45:10.939Z,15.70
2019-03-23T04:47:40.668Z,15.10
2019-03-23T04:50:11.014Z,13.90
2019-03-23T04:52:40.666Z,14.33
2019-03-23T04:55:10.628Z,15.13
2019-03-23T04:57:40.908Z,15.37
2019-03-23T05:00:11.245Z,16.13
2019-03-23T05:02:40.879Z,15.13
2019-03-23T05:05:10.646Z,14.87
2019-03-23T05:07:40.447Z,14.20
2019-03-23T05:10:10.401Z,13.70
2019-03-23T05:12:41.239Z,13.53
2019-03-23T05:15:10.967Z,15.33
2019-03-23T05:17:40.641Z,15.60
2019-03-23T05:20:10.550Z,13.37
2019-03-23T05:22:40.281Z,13.57
2019-03-23T05:25:13.230Z,13.60
2019-03-23T05:27:42.789Z,13.17
2019-03-23T05:30:13.212Z,13.43
2019-03-23T05:32:42.850Z,15.05
2019-03-23T05:35:12.561Z,15.23
2019-03-23T05:37:42.490Z,13.40
2019-03-23T05:40:12.179Z,14.10
2019-03-23T05:42:41.758Z,14.10
2019-03-23T05:45:11.922Z,14.33
2019-03-23T05:47:41.563Z,12.63
2019-03-23T05:50:11.179Z,13.70
2019-03-23T05:52:40.842Z,14.20
2019-03-23T05:55:10.654Z,15.63
2019-03-23T05:57:40.368Z,13.80
2019-03-23T06:00:11.736Z,14.57
2019-03-23T06:02:41.427Z,15.20
2019-03-23T06:05:11.082Z,14.27
2019-03-23T06:07:40.858Z,13.97
2019-03-23T06:10:10.439Z,14.03
2019-03-23T06:12:40.083Z,13.57
2019-03-23T06:15:10.720Z,12.77
2019-03-23T06:17:40.321Z,13.10
2019-03-23T06:20:10.050Z,13.70
2019-03-23T06:22:39.774Z,12.73
2019-03-23T06:25:09.537Z,11.77
2019-03-23T06:27:39.258Z,13.32
2019-03-23T06:30:09.246Z,12.67
2019-03-23T06:32:38.898Z,12.67
2019-03-23T06:35:08.736Z,11.67
2019-03-23T06:37:38.530Z,10.60
2019-03-23T06:40:09.682Z,11.90
2019-03-23T06:42:39.501Z,12.95
2019-03-23T06:45:09.573Z,12.60
2019-03-23T06:47:39.191Z,12.07
2019-03-23T06:50:10.089Z,11.83
2019-03-23T06:52:39.769Z,12.90
2019-03-23T06:55:09.505Z,12.60
2019-03-23T06:57:39.158Z,12.60
2019-03-23T07:00:09.370Z,12.17
2019-03-23T07:02:39.162Z,11.00
2019-03-23T07:05:09.035Z,11.37
2019-03-23T07:07:38.792Z,12.17
2019-03-23T07:10:08.781Z,11.40
2019-03-23T07:12:38.422Z,11.10
2019-03-23T07:15:19.109Z,10.33
2019-03-23T07:17:39.951Z,11.37
2019-03-23T07:20:10.479Z,11.30
2019-03-23T07:22:40.081Z,12.23
2019-03-23T07:25:10.581Z,12.23
2019-03-23T07:27:40.967Z,12.83
2019-03-23T07:30:12.771Z,14.70
2019-03-23T07:32:42.519Z,13.33
2019-03-23T07:35:12.459Z,11.97
2019-03-23T07:37:42.134Z,11.13
2019-03-23T07:40:13.174Z,12.05
2019-03-23T07:42:43.096Z,11.37
2019-03-23T07:45:13.223Z,11.27
2019-03-23T07:47:42.905Z,12.20
2019-03-23T07:50:12.596Z,11.60
2019-03-23T07:52:42.269Z,12.33
2019-03-23T07:55:12.970Z,11.87
2019-03-23T07:57:42.804Z,11.60
2019-03-23T08:00:13.602Z,11.03
2019-03-23T08:02:43.359Z,10.73
2019-03-23T08:05:13.038Z,11.07
2019-03-23T08:07:42.726Z,11.77
2019-03-23T08:10:18.627Z,12.63
2019-03-23T08:12:48.317Z,11.87
2019-03-23T08:15:17.911Z,11.20
2019-03-23T08:17:47.575Z,10.97
2019-03-23T08:20:17.151Z,14.45
2019-03-23T08:22:46.797Z,12.57
2019-03-23T08:25:16.487Z,14.23
2019-03-23T08:27:46.119Z,14.23
2019-03-23T08:30:15.787Z,14.63
2019-03-23T08:32:45.453Z,15.00
2019-03-23T08:35:15.162Z,16.53
2019-03-23T08:37:44.861Z,15.30
2019-03-23T08:40:14.541Z,17.20
2019-03-23T08:42:45.140Z,17.60
2019-03-23T08:45:14.886Z,17.50
2019-03-23T08:47:44.549Z,17.60
2019-03-23T08:50:14.261Z,16.43
2019-03-23T08:52:45.124Z,17.13
2019-03-23T08:55:14.789Z,19.60
2019-03-23T08:57:44.394Z,15.77
2019-03-23T09:00:14.149Z,18.23
2019-03-23T09:02:43.863Z,19.00
2019-03-23T09:05:13.501Z,17.40
2019-03-23T09:07:43.230Z,19.27
2019-03-23T09:10:12.898Z,18.30
2019-03-23T09:12:42.726Z,19.30
2019-03-23T09:15:12.440Z,20.43
2019-03-23T09:17:42.752Z,18.67
2019-03-23T09:20:12.842Z,20.90
2019-03-23T09:22:42.490Z,21.03
2019-03-23T09:25:12.187Z,21.00
2019-03-23T09:27:44.264Z,19.00
2019-03-23T09:30:14.159Z,22.23
2019-03-23T09:32:43.762Z,21.07
2019-03-23T09:35:13.579Z,21.23
2019-03-23T09:37:43.439Z,20.90
2019-03-23T09:40:13.113Z,28.30
2019-03-23T09:42:42.815Z,34.30
2019-03-23T09:45:14.282Z,22.63
2019-03-23T09:47:44.000Z,21.20
2019-03-23T09:50:14.138Z,23.33
2019-03-23T09:52:43.699Z,22.83
2019-03-23T09:55:13.403Z,21.50
2019-03-23T09:57:43.055Z,23.00
2019-03-23T10:00:13.075Z,22.27
2019-03-23T10:02:42.755Z,24.47
2019-03-23T10:05:12.425Z,24.27
2019-03-23T10:07:42.028Z,23.17
2019-03-23T10:10:21.413Z,22.67
2019-03-23T10:12:42.907Z,24.37
2019-03-23T10:15:12.579Z,24.20
2019-03-23T10:17:42.366Z,23.00
2019-03-23T10:20:12.154Z,23.27
2019-03-23T10:22:41.814Z,23.63
2019-03-23T10:25:11.689Z,22.73
2019-03-23T10:27:41.554Z,21.63
2019-03-23T10:30:13.597Z,23.13
2019-03-23T10:32:43.181Z,24.13
2019-03-23T10:35:13.007Z,25.43
2019-03-23T10:37:43.606Z,24.90
2019-03-23T10:40:13.291Z,23.43
2019-03-23T10:42:44.631Z,25.13
2019-03-23T10:45:14.499Z,24.83
2019-03-23T10:47:44.292Z,23.90
2019-03-23T10:50:14.050Z,24.43
2019-03-23T10:52:44.778Z,27.65
2019-03-23T10:55:14.632Z,27.60
2019-03-23T10:57:44.278Z,27.37
2019-03-23T11:00:14.753Z,27.70
2019-03-23T11:02:46.637Z,27.13
2019-03-23T11:05:16.218Z,31.13
2019-03-23T11:07:45.996Z,37.17
2019-03-23T11:10:15.662Z,26.57
2019-03-23T11:12:45.333Z,25.20
2019-03-23T11:15:14.998Z,26.53
2019-03-23T11:17:44.674Z,26.50
2019-03-23T11:20:14.383Z,25.57
2019-03-23T11:22:43.989Z,26.33
2019-03-23T11:25:14.048Z,25.27
2019-03-23T11:27:43.735Z,25.70
2019-03-23T11:30:13.569Z,24.17
2019-03-23T11:32:43.322Z,24.90
2019-03-23T11:35:13.192Z,23.70
2019-03-23T11:37:43.224Z,25.30
2019-03-23T11:40:13.182Z,27.30
2019-03-23T11:42:49.934Z,26.40
2019-03-23T11:45:14.598Z,26.93
2019-03-23T11:47:44.511Z,28.30
2019-03-23T11:50:14.212Z,29.67
2019-03-23T11:52:43.895Z,28.80
2019-03-23T11:55:13.645Z,28.17
2019-03-23T11:57:43.322Z,28.27
2019-03-23T12:00:13.023Z,29.05
2019-03-23T12:02:42.764Z,29.40
2019-03-23T12:05:12.531Z,26.50
2019-03-23T12:07:42.215Z,24.70
2019-03-23T12:10:11.998Z,56.17
2019-03-23T12:12:41.781Z,23.95
2019-03-23T12:15:11.651Z,23.12
2019-03-23T12:17:41.923Z,29.70
2019-03-23T12:20:12.756Z,29.40
2019-03-23T12:22:42.531Z,28.67
2019-03-23T12:25:12.317Z,24.43
2019-03-23T12:27:42.003Z,24.20
2019-03-23T12:30:12.778Z,27.02
2019-03-23T12:32:42.373Z,26.50
2019-03-23T12:35:13.380Z,25.57
2019-03-23T12:37:44.219Z,26.10
2019-03-23T12:40:13.958Z,25.37
2019-03-23T12:42:43.674Z,25.48
2019-03-23T12:45:13.498Z,27.87
2019-03-23T12:47:43.177Z,27.77
2019-03-23T12:50:13.591Z,28.42
2019-03-23T12:52:43.401Z,26.85
2019-03-23T12:55:13.124Z,26.60
2019-03-23T12:57:42.983Z,27.52
2019-03-23T13:00:12.914Z,26.30
2019-03-23T13:02:42.584Z,25.68
2019-03-23T13:05:13.303Z,25.25
2019-03-23T13:07:43.054Z,24.32
2019-03-23T13:10:13.013Z,26.42
2019-03-23T13:12:42.827Z,23.12
2019-03-23T13:15:12.673Z,25.52
2019-03-23T13:17:42.342Z,23.70
2019-03-23T13:20:12.318Z,24.45
2019-03-23T13:22:42.399Z,21.87
2019-03-23T13:25:12.491Z,43.13
2019-03-23T13:27:42.341Z,27.10
2019-03-23T13:30:12.397Z,25.60
2019-03-23T13:32:42.985Z,24.72
2019-03-23T13:35:12.631Z,24.50
2019-03-23T13:37:42.290Z,23.02
2019-03-23T13:40:12.321Z,23.42
2019-03-23T13:42:41.989Z,22.60
2019-03-23T13:45:11.871Z,23.30
2019-03-23T13:47:41.470Z,22.60
2019-03-23T13:50:11.250Z,27.15
2019-03-23T13:52:43.488Z,25.08
2019-03-23T13:55:24.083Z,23.87
2019-03-23T13:57:53.831Z,23.83
2019-03-23T14:00:23.470Z,24.35
2019-03-23T14:02:53.177Z,23.32
2019-03-23T14:05:22.929Z,24.23
2019-03-23T14:07:52.609Z,23.27
2019-03-23T14:10:22.257Z,20.10
2019-03-23T14:12:51.972Z,21.95
2019-03-23T14:15:21.696Z,19.90
2019-03-23T14:17:51.357Z,22.10
2019-03-23T14:20:21.040Z,22.58
2019-03-23T14:22:50.702Z,23.62
2019-03-23T14:25:20.342Z,21.90
2019-03-23T14:27:49.940Z,21.02
2019-03-23T14:30:19.698Z,20.60
2019-03-23T14:32:49.355Z,23.00
2019-03-23T14:35:19.154Z,25.50
2019-03-23T14:37:48.722Z,24.72
2019-03-23T14:40:18.483Z,25.45
2019-03-23T14:42:48.130Z,24.92
2019-03-23T14:45:18.036Z,27.48
2019-03-23T14:47:47.641Z,29.10
2019-03-23T14:50:17.228Z,26.80
2019-03-23T14:52:46.797Z,28.73
2019-03-23T14:55:16.458Z,28.92
2019-03-23T14:57:46.132Z,28.80
2019-03-23T15:00:18.177Z,27.98
2019-03-23T15:02:47.776Z,27.98
2019-03-23T15:05:17.420Z,29.67
2019-03-23T15:07:47.004Z,27.90
2019-03-23T15:10:16.770Z,26.20
2019-03-23T15:12:46.418Z,27.25
2019-03-23T15:15:16.023Z,27.20
2019-03-23T15:17:48.966Z,26.77
2019-03-23T15:20:17.082Z,29.73
2019-03-23T15:22:46.695Z,28.27
2019-03-23T15:25:16.370Z,29.92
2019-03-23T15:27:45.963Z,29.42
2019-03-23T15:30:16.831Z,28.27
2019-03-23T15:32:46.532Z,30.55
2019-03-23T15:35:16.239Z,28.23
2019-03-23T15:37:45.815Z,32.28
2019-03-23T15:40:15.731Z,29.92
2019-03-23T15:42:45.451Z,30.65
2019-03-23T15:45:15.251Z,30.35
2019-03-23T15:47:44.828Z,29.63
2019-03-23T15:50:15.663Z,30.12
2019-03-23T15:52:45.333Z,30.25
2019-03-23T15:55:15.173Z,27.90
2019-03-23T15:57:44.829Z,26.95
2019-03-23T16:00:14.542Z,30.57
2019-03-23T16:02:44.118Z,26.37
2019-03-23T16:05:13.872Z,28.23
2019-03-23T16:07:43.591Z,28.75
2019-03-23T16:10:13.302Z,28.65
2019-03-23T16:12:43.088Z,26.90
2019-03-23T16:15:13.262Z,29.77
2019-03-23T16:17:42.922Z,29.32
2019-03-23T16:20:14.316Z,28.38
2019-03-23T16:22:43.950Z,31.10
2019-03-23T16:25:13.628Z,30.08
2019-03-23T16:27:43.300Z,29.45
2019-03-23T16:30:13.446Z,34.63
2019-03-23T16:32:43.110Z,35.60
2019-03-23T16:35:12.790Z,33.90
2019-03-23T16:37:42.441Z,34.10
2019-03-23T16:40:13.151Z,33.60
2019-03-23T16:42:45.527Z,35.17
2019-03-23T16:45:14.139Z,34.33
2019-03-23T16:47:43.843Z,37.15
2019-03-23T16:50:13.523Z,35.27
2019-03-23T16:52:43.247Z,35.80
2019-03-23T16:55:13.137Z,36.53
2019-03-23T16:57:42.795Z,37.47
2019-03-23T17:00:13.845Z,37.17
2019-03-23T17:02:43.690Z,34.43
2019-03-23T17:05:13.429Z,38.60
2019-03-23T17:07:43.038Z,36.33
2019-03-23T17:10:12.755Z,38.00
2019-03-23T17:12:42.419Z,40.58
2019-03-23T17:15:12.348Z,39.37
2019-03-23T17:17:42.932Z,37.67
2019-03-23T17:20:12.836Z,38.43
2019-03-23T17:22:42.767Z,38.98
2019-03-23T17:25:12.507Z,38.23
2019-03-23T17:27:42.189Z,37.43
2019-03-23T17:30:12.066Z,37.73
2019-03-23T17:32:41.871Z,37.00
2019-03-23T17:35:12.494Z,38.57
2019-03-23T17:37:42.144Z,38.90
2019-03-23T17:40:11.790Z,36.90
2019-03-23T17:42:41.393Z,36.80
2019-03-23T17:45:11.180Z,37.90
2019-03-23T17:47:40.886Z,36.53
2019-03-23T17:50:10.990Z,38.90
2019-03-23T17:52:40.667Z,38.10
2019-03-23T17:55:10.344Z,39.63
2019-03-23T17:57:40.018Z,36.77
2019-03-23T18:00:09.876Z,40.20
2019-03-23T18:02:40.810Z,40.97
2019-03-23T18:05:12.334Z,112.97
2019-03-23T18:07:42.151Z,38.00
2019-03-23T18:10:11.812Z,37.60
2019-03-23T18:12:41.501Z,36.80
2019-03-23T18:15:11.415Z,37.90
2019-03-23T18:17:41.164Z,38.00
2019-03-23T18:20:10.894Z,38.00
2019-03-23T18:22:40.603Z,38.90
2019-03-23T18:25:10.355Z,37.07
2019-03-23T18:27:39.987Z,34.53
2019-03-23T18:30:16.966Z,35.80
2019-03-23T18:32:46.634Z,37.40
2019-03-23T18:35:16.293Z,36.60
2019-03-23T18:37:46.334Z,36.93
2019-03-23T18:40:16.012Z,37.97
2019-03-23T18:42:45.706Z,38.87
2019-03-23T18:45:15.695Z,37.70
2019-03-23T18:47:45.308Z,39.13
2019-03-23T18:50:14.898Z,44.67
2019-03-23T18:52:44.555Z,39.87
2019-03-23T18:55:14.202Z,39.47
2019-03-23T18:57:44.055Z,37.10
2019-03-23T19:00:15.717Z,39.07
2019-03-23T19:02:45.404Z,41.00
2019-03-23T19:05:15.075Z,35.40
2019-03-23T19:07:44.753Z,38.90
2019-03-23T19:10:14.621Z,40.30
2019-03-23T19:12:45.181Z,38.37
2019-03-23T19:15:14.899Z,43.70
2019-03-23T19:17:44.572Z,35.83
2019-03-23T19:20:14.247Z,35.27
2019-03-23T19:22:44.051Z,36.30
2019-03-23T19:25:17.220Z,36.40
2019-03-23T19:27:45.098Z,35.87
2019-03-23T19:30:15.251Z,34.10
2019-03-23T19:32:44.857Z,37.40
2019-03-23T19:35:14.543Z,36.20
2019-03-23T19:37:44.276Z,37.40
2019-03-23T19:40:14.114Z,36.10
2019-03-23T19:42:43.811Z,34.70
2019-03-23T19:45:13.544Z,36.73
2019-03-23T19:47:43.235Z,35.37
2019-03-23T19:50:13.064Z,32.80
2019-03-23T19:52:42.933Z,34.70
2019-03-23T19:55:12.788Z,35.50
2019-03-23T19:57:42.530Z,37.87
2019-03-23T20:00:12.312Z,34.17
2019-03-23T20:02:42.186Z,35.00
2019-03-23T20:05:12.059Z,34.77
2019-03-23T20:07:41.796Z,34.93
2019-03-23T20:10:11.754Z,36.00
2019-03-23T20:12:41.502Z,35.73
2019-03-23T20:15:12.412Z,34.90
2019-03-23T20:17:42.404Z,34.57
2019-03-23T20:20:14.015Z,37.07
2019-03-23T20:22:43.686Z,32.97
2019-03-23T20:25:13.430Z,33.33
2019-03-23T20:27:43.089Z,33.70
2019-03-23T20:30:13.143Z,35.30
2019-03-23T20:32:42.830Z,35.13
2019-03-23T20:35:12.913Z,33.60
2019-03-23T20:37:42.563Z,35.80
2019-03-23T20:40:13.351Z,36.35
2019-03-23T20:42:43.970Z,37.93
2019-03-23T20:45:16.133Z,34.57
2019-03-23T20:47:45.803Z,32.27
2019-03-23T20:50:15.445Z,36.03
2019-03-23T20:52:46.370Z,149.87
2019-03-23T20:55:24.099Z,35.17
2019-03-23T20:57:54.228Z,32.00
2019-03-23T21:00:23.949Z,32.60
2019-03-23T21:02:54.450Z,34.67
2019-03-23T21:05:33.096Z,35.80
2019-03-23T21:07:55.326Z,36.00
2019-03-23T21:10:25.030Z,37.60
2019-03-23T21:12:54.632Z,35.30
2019-03-23T21:15:24.274Z,38.00
2019-03-23T21:17:53.973Z,33.63
2019-03-23T21:20:23.544Z,34.10
2019-03-23T21:22:54.130Z,37.00
2019-03-23T21:25:23.736Z,35.43
2019-03-23T21:27:53.476Z,36.43
2019-03-23T21:30:23.126Z,37.97
2019-03-23T21:32:52.796Z,36.10
2019-03-23T21:35:22.509Z,38.47
2019-03-23T21:37:52.177Z,36.17
2019-03-23T21:40:21.927Z,36.53
2019-03-23T21:42:51.603Z,68.60
2019-03-23T21:45:21.273Z,39.00
2019-03-23T21:47:50.886Z,39.13
2019-03-23T21:50:20.533Z,37.37
2019-03-23T21:52:50.211Z,36.00
2019-03-23T21:55:19.786Z,38.80
2019-03-23T21:57:49.771Z,36.77
2019-03-23T22:00:29.712Z,38.00
2019-03-23T22:03:00.597Z,41.17
2019-03-23T22:05:30.536Z,41.00
2019-03-23T22:08:00.237Z,38.63
2019-03-23T22:10:29.826Z,39.00
2019-03-23T22:12:59.458Z,38.70
2019-03-23T22:15:32.148Z,39.40
2019-03-23T22:18:03.096Z,39.27
2019-03-23T22:20:32.821Z,38.80
2019-03-23T22:23:03.072Z,37.83
2019-03-23T22:25:32.659Z,42.98
2019-03-23T22:28:02.741Z,41.63
2019-03-23T22:30:32.498Z,43.33
2019-03-23T22:33:02.503Z,39.40
2019-03-23T22:35:32.316Z,39.67
2019-03-23T22:38:02.026Z,44.18
2019-03-23T22:40:31.987Z,38.77
2019-03-23T22:43:02.643Z,41.80
2019-03-23T22:45:32.378Z,46.00
2019-03-23T22:48:02.098Z,42.47
2019-03-23T22:50:31.868Z,40.43
2019-03-23T22:53:01.479Z,37.37
2019-03-23T22:55:32.225Z,41.00
2019-03-23T22:58:01.897Z,39.50
2019-03-23T23:00:41.451Z,39.87
2019-03-23T23:03:12.487Z,38.47
2019-03-23T23:05:42.492Z,38.17
2019-03-23T23:08:12.219Z,38.60
2019-03-23T23:10:41.908Z,39.57
2019-03-23T23:13:11.579Z,39.20
2019-03-23T23:15:41.436Z,38.50
2019-03-23T23:18:11.037Z,37.30
2019-03-23T23:20:40.810Z,38.60
2019-03-23T23:23:10.615Z,37.93
2019-03-23T23:25:40.272Z,36.67
2019-03-23T23:28:09.936Z,38.73
2019-03-23T23:30:39.600Z,81.03
2019-03-23T23:33:09.367Z,42.60
2019-03-23T23:35:39.077Z,40.63
2019-03-23T23:38:08.878Z,39.20
2019-03-23T23:40:40.205Z,39.90
2019-03-23T23:43:10.134Z,37.57
2019-03-23T23:45:39.809Z,38.60
2019-03-23T23:48:09.498Z,42.25
2019-03-23T23:50:38.847Z,40.63
2019-03-23T23:53:08.742Z,39.30
2019-03-23T23:55:38.381Z,36.87
2019-03-23T23:58:08.349Z,36.03
